Time;durP1;ratioP1;P1;durP2;ratioP2;P2;SDS_P1;SDS_P2;PMS_P1;PMS_P2;Temp;Humidity;BMP_temperature;BMP_pressure;BME280_temperature;BME280_humidity;BME280_pressure;Samples;Min_cycle;Max_cycle;Signal;HPM_P1;HPM_P2
2020/12/21 00:00:00;;;;;;;47.65;13.80;;;;;;;;;;5042423;28;20047;-67
2020/12/21 00:02:25;;;;;;;58.33;14.18;;;;;;;;;;5029374;28;20109;-68
2020/12/21 00:04:51;;;;;;;87.82;16.25;;;;;;;;;;5029173;28;20049;-67
2020/12/21 00:07:16;;;;;;;56.03;14.38;;;;;;;;;;5048667;28;20108;-67
2020/12/21 00:09:41;;;;;;;85.78;15.55;;;;;;;;;;5048708;28;20033;-74
2020/12/21 00:12:07;;;;;;;51.55;13.68;;;;;;;;;;5048063;28;20025;-67
2020/12/21 00:14:32;;;;;;;57.80;13.88;;;;;;;;;;5049031;28;21084;-67
2020/12/21 00:16:57;;;;;;;60.20;13.95;;;;;;;;;;5049326;28;20385;-67
2020/12/21 00:19:23;;;;;;;51.17;13.40;;;;;;;;;;5049419;28;20033;-67
2020/12/21 00:21:49;;;;;;;67.35;14.18;;;;;;;;;;5047065;28;20354;-67
2020/12/21 00:24:15;;;;;;;46.47;11.73;;;;;;;;;;5049273;28;20083;-73
2020/12/21 00:26:44;;;;;;;53.00;13.75;;;;;;;;;;5049919;28;20045;-68
2020/12/21 00:29:09;;;;;;;56.15;13.68;;;;;;;;;;5048749;28;20017;-68
2020/12/21 00:31:35;;;;;;;57.15;14.15;;;;;;;;;;5048907;28;20056;-67
2020/12/21 00:34:01;;;;;;;69.38;15.00;;;;;;;;;;5049331;28;20041;-68
2020/12/21 00:36:27;;;;;;;51.40;13.25;;;;;;;;;;5049192;28;20024;-68
2020/12/21 00:38:52;;;;;;;107.60;17.55;;;;;;;;;;5048805;28;20033;-67
2020/12/21 00:41:19;;;;;;;64.18;14.82;;;;;;;;;;5049552;28;20073;-67
2020/12/21 00:43:45;;;;;;;50.25;12.30;;;;;;;;;;5049515;28;20038;-67
2020/12/21 00:46:31;;;;;;;55.72;14.68;;;;;;;;;;5048837;28;20041;-67
2020/12/21 00:48:57;;;;;;;55.17;14.10;;;;;;;;;;5040352;28;20052;-67
2020/12/21 00:51:23;;;;;;;95.70;16.70;;;;;;;;;;5028664;28;20029;-67
2020/12/21 00:53:48;;;;;;;76.30;16.50;;;;;;;;;;5029234;28;20393;-68
2020/12/21 00:56:15;;;;;;;53.28;14.30;;;;;;;;;;5028514;28;20026;-67
2020/12/21 00:58:40;;;;;;;70.68;15.13;;;;;;;;;;5029069;28;20053;-67
2020/12/21 01:01:10;;;;;;;68.35;14.82;;;;;;;;;;5028710;28;20069;-67
2020/12/21 01:03:36;;;;;;;69.85;14.95;;;;;;;;;;5028473;28;20025;-67
2020/12/21 01:06:01;;;;;;;51.50;13.35;;;;;;;;;;5028844;28;20444;-69
2020/12/21 01:08:26;;;;;;;45.75;12.10;;;;;;;;;;5027807;28;20033;-72
2020/12/21 01:10:52;;;;;;;120.45;17.90;;;;;;;;;;5028385;28;20030;-68
2020/12/21 01:13:17;;;;;;;66.97;14.77;;;;;;;;;;5028195;28;20025;-67
2020/12/21 01:15:42;;;;;;;50.17;14.15;;;;;;;;;;5028318;28;20030;-67
2020/12/21 01:18:08;;;;;;;53.40;13.77;;;;;;;;;;5028649;28;20021;-70
2020/12/21 01:20:33;;;;;;;36.38;11.73;;;;;;;;;;5027894;28;20029;-68
2020/12/21 01:22:58;;;;;;;64.22;14.05;;;;;;;;;;5032535;28;20460;-68
2020/12/21 01:25:24;;;;;;;61.50;14.38;;;;;;;;;;5031876;28;20032;-68
2020/12/21 01:27:49;;;;;;;26.27;10.38;;;;;;;;;;5032152;28;20026;-68
2020/12/21 01:30:14;;;;;;;59.80;14.07;;;;;;;;;;5031696;28;20131;-67
2020/12/21 01:32:39;;;;;;;52.42;13.60;;;;;;;;;;5032287;28;20042;-67
2020/12/21 01:35:05;;;;;;;60.22;13.60;;;;;;;;;;5031595;28;20037;-68
2020/12/21 01:37:30;;;;;;;54.85;13.48;;;;;;;;;;5032872;28;20112;-68
2020/12/21 01:39:55;;;;;;;41.28;12.63;;;;;;;;;;5031374;28;20025;-67
2020/12/21 01:42:21;;;;;;;55.20;13.07;;;;;;;;;;5047771;28;20495;-69
2020/12/21 01:44:48;;;;;;;44.88;12.40;;;;;;;;;;5037994;28;20390;-67
2020/12/21 01:47:13;;;;;;;59.75;14.23;;;;;;;;;;5032090;28;20021;-67
2020/12/21 01:49:39;;;;;;;34.58;10.68;;;;;;;;;;5030652;28;20030;-67
2020/12/21 01:52:07;;;;;;;38.95;11.00;;;;;;;;;;5031739;28;20041;-67
2020/12/21 01:54:33;;;;;;;37.60;9.73;;;;;;;;;;5032455;28;20021;-68
2020/12/21 01:56:58;;;;;;;38.60;10.75;;;;;;;;;;5031693;28;20092;-68
2020/12/21 01:59:24;;;;;;;53.47;11.65;;;;;;;;;;5031401;28;20037;-68
2020/12/21 02:01:50;;;;;;;29.55;8.48;;;;;;;;;;5031053;28;20043;-68
2020/12/21 02:04:15;;;;;;;46.30;11.55;;;;;;;;;;5031101;28;20113;-68
2020/12/21 02:06:40;;;;;;;31.77;10.32;;;;;;;;;;5030240;28;20041;-74
2020/12/21 02:09:05;;;;;;;33.80;9.85;;;;;;;;;;5031857;28;20097;-67
2020/12/21 02:11:31;;;;;;;43.25;10.85;;;;;;;;;;5030792;28;20432;-68
2020/12/21 02:13:56;;;;;;;45.53;11.32;;;;;;;;;;5030743;28;20041;-67
2020/12/21 02:16:21;;;;;;;32.92;9.98;;;;;;;;;;5031012;28;20109;-69
2020/12/21 02:18:47;;;;;;;50.97;12.18;;;;;;;;;;5031227;28;20029;-67
2020/12/21 02:21:12;;;;;;;58.58;14.10;;;;;;;;;;5014244;28;20034;-67
2020/12/21 02:23:37;;;;;;;52.15;14.50;;;;;;;;;;5031006;28;20040;-69
2020/12/21 02:26:02;;;;;;;43.42;15.30;;;;;;;;;;5031023;28;20072;-68
2020/12/21 02:28:28;;;;;;;44.25;15.55;;;;;;;;;;5030841;28;20033;-68
2020/12/21 02:30:53;;;;;;;51.85;16.95;;;;;;;;;;5030679;28;20351;-67
2020/12/21 02:33:18;;;;;;;75.72;19.67;;;;;;;;;;5029832;28;20053;-68
2020/12/21 02:35:44;;;;;;;44.22;15.60;;;;;;;;;;5031070;28;20105;-68
2020/12/21 02:38:09;;;;;;;41.85;16.35;;;;;;;;;;5030505;28;20373;-68
2020/12/21 02:40:38;;;;;;;49.83;17.40;;;;;;;;;;5031930;28;20055;-69
2020/12/21 02:43:03;;;;;;;65.40;19.77;;;;;;;;;;5044994;28;20041;-67
2020/12/21 02:45:28;;;;;;;58.92;18.40;;;;;;;;;;5030160;28;20039;-67
2020/12/21 02:47:54;;;;;;;79.65;19.42;;;;;;;;;;5030423;28;20079;-68
2020/12/21 02:50:19;;;;;;;60.92;15.57;;;;;;;;;;5030669;28;20037;-68
2020/12/21 02:52:44;;;;;;;38.42;13.20;;;;;;;;;;5061943;28;20021;-67
2020/12/21 02:55:10;;;;;;;43.85;14.10;;;;;;;;;;5030522;28;20283;-69
2020/12/21 02:57:35;;;;;;;51.15;16.05;;;;;;;;;;5030477;28;20029;-69
2020/12/21 03:00:01;;;;;;;44.63;14.93;;;;;;;;;;5030496;28;20056;-68
2020/12/21 03:02:26;;;;;;;55.15;15.60;;;;;;;;;;5030049;28;20036;-69
2020/12/21 03:04:51;;;;;;;68.72;16.70;;;;;;;;;;5030956;28;20025;-67
2020/12/21 03:07:16;;;;;;;70.13;18.23;;;;;;;;;;5030248;28;20092;-68
2020/12/21 03:09:42;;;;;;;34.15;13.10;;;;;;;;;;5030023;28;20041;-68
2020/12/21 03:12:07;;;;;;;47.67;15.02;;;;;;;;;;5029756;28;20029;-68
2020/12/21 03:14:32;;;;;;;75.88;16.65;;;;;;;;;;5029484;28;20045;-67
2020/12/21 03:16:57;;;;;;;42.42;13.23;;;;;;;;;;5030168;28;20030;-71
2020/12/21 03:19:23;;;;;;;48.55;11.73;;;;;;;;;;5030610;28;20045;-68
2020/12/21 03:21:48;;;;;;;27.48;8.95;;;;;;;;;;5029699;28;20096;-68
2020/12/21 03:24:13;;;;;;;31.63;11.70;;;;;;;;;;5030047;28;20128;-67
2020/12/21 03:26:39;;;;;;;60.13;14.02;;;;;;;;;;5028570;28;20060;-68
2020/12/21 03:29:04;;;;;;;30.27;10.20;;;;;;;;;;5030241;28;20041;-67
2020/12/21 03:31:29;;;;;;;31.75;10.30;;;;;;;;;;5029950;28;20029;-68
2020/12/21 03:33:55;;;;;;;30.13;8.65;;;;;;;;;;5029251;28;20375;-68
2020/12/21 03:36:21;;;;;;;49.00;9.95;;;;;;;;;;5029317;28;20458;-72
2020/12/21 03:38:46;;;;;;;29.67;9.32;;;;;;;;;;5029785;28;20022;-67
2020/12/21 03:41:12;;;;;;;25.88;8.40;;;;;;;;;;5036046;28;20040;-68
2020/12/21 03:43:37;;;;;;;33.60;8.68;;;;;;;;;;5039483;28;20024;-68
2020/12/21 03:46:02;;;;;;;22.77;7.07;;;;;;;;;;5029791;28;20053;-67
2020/12/21 03:48:28;;;;;;;24.58;7.47;;;;;;;;;;5029554;28;20083;-68
2020/12/21 03:50:53;;;;;;;29.27;9.70;;;;;;;;;;5028599;28;20045;-67
2020/12/21 03:53:18;;;;;;;26.50;8.50;;;;;;;;;;5029822;28;20025;-70
2020/12/21 03:55:43;;;;;;;22.70;6.15;;;;;;;;;;5029246;28;20060;-69
2020/12/21 03:58:09;;;;;;;23.95;7.43;;;;;;;;;;5029296;28;20377;-67
2020/12/21 04:00:34;;;;;;;18.48;6.35;;;;;;;;;;5029914;28;20061;-68
2020/12/21 04:02:59;;;;;;;36.13;7.15;;;;;;;;;;5029783;28;20041;-69
2020/12/21 04:05:25;;;;;;;23.70;7.43;;;;;;;;;;5028445;28;20022;-68
2020/12/21 04:07:50;;;;;;;25.98;7.88;;;;;;;;;;5029694;28;20060;-71
2020/12/21 04:10:15;;;;;;;39.47;8.07;;;;;;;;;;5029540;28;20483;-68
2020/12/21 04:12:41;;;;;;;37.72;8.68;;;;;;;;;;5029155;28;20026;-74
2020/12/21 04:15:06;;;;;;;23.65;6.82;;;;;;;;;;5029782;28;20489;-67
2020/12/21 04:17:31;;;;;;;25.80;7.72;;;;;;;;;;5029242;28;20091;-68
2020/12/21 04:19:57;;;;;;;24.55;7.50;;;;;;;;;;5029250;28;20022;-71
2020/12/21 04:22:22;;;;;;;21.17;8.88;;;;;;;;;;5029246;28;20035;-68
2020/12/21 04:24:47;;;;;;;28.42;9.32;;;;;;;;;;5029088;28;20069;-67
2020/12/21 04:27:13;;;;;;;25.02;10.68;;;;;;;;;;5029106;28;20025;-67
2020/12/21 04:29:38;;;;;;;24.95;10.13;;;;;;;;;;5029016;28;20025;-67
2020/12/21 04:32:04;;;;;;;18.30;8.23;;;;;;;;;;5029063;28;20168;-68
2020/12/21 04:34:29;;;;;;;26.42;9.27;;;;;;;;;;5028685;28;20025;-67
2020/12/21 04:36:55;;;;;;;30.30;8.80;;;;;;;;;;5028801;28;20030;-68
2020/12/21 04:39:23;;;;;;;18.80;9.27;;;;;;;;;;5029236;28;20030;-67
2020/12/21 04:41:52;;;;;;;22.23;9.98;;;;;;;;;;5040651;28;20040;-68
2020/12/21 04:44:19;;;;;;;19.25;6.30;;;;;;;;;;5035489;28;20522;-73
2020/12/21 04:46:45;;;;;;;18.55;6.45;;;;;;;;;;5028357;28;20091;-68
2020/12/21 04:49:11;;;;;;;18.88;6.50;;;;;;;;;;5029041;28;20029;-68
2020/12/21 04:51:40;;;;;;;22.75;9.20;;;;;;;;;;5028187;28;20030;-67
2020/12/21 04:54:08;;;;;;;24.50;8.57;;;;;;;;;;5028521;28;20115;-68
2020/12/21 04:56:33;;;;;;;21.60;8.25;;;;;;;;;;5029712;28;20028;-68
2020/12/21 04:58:59;;;;;;;18.33;5.25;;;;;;;;;;5032435;28;20021;-68
2020/12/21 05:01:24;;;;;;;13.63;3.67;;;;;;;;;;5032053;28;20057;-68
2020/12/21 05:03:50;;;;;;;11.50;4.25;;;;;;;;;;5032934;28;20021;-68
2020/12/21 05:06:15;;;;;;;13.95;5.53;;;;;;;;;;5031886;28;20508;-68
2020/12/21 05:08:40;;;;;;;8.95;3.80;;;;;;;;;;5032244;28;20116;-67
2020/12/21 05:11:06;;;;;;;7.55;3.22;;;;;;;;;;5031332;28;20053;-69
2020/12/21 05:13:34;;;;;;;7.60;3.30;;;;;;;;;;5031671;28;20112;-68
2020/12/21 05:15:59;;;;;;;11.05;5.10;;;;;;;;;;5032048;28;20033;-68
2020/12/21 05:18:26;;;;;;;9.27;3.70;;;;;;;;;;5032703;28;20028;-69
2020/12/21 05:20:55;;;;;;;9.55;2.85;;;;;;;;;;5032397;28;20025;-68
2020/12/21 05:23:20;;;;;;;16.33;4.07;;;;;;;;;;5031829;28;20539;-68
2020/12/21 05:25:55;;;;;;;11.10;2.97;;;;;;;;;;5031648;28;20033;-68
2020/12/21 05:28:22;;;;;;;9.88;3.15;;;;;;;;;;5032212;28;20025;-68
2020/12/21 05:30:51;;;;;;;8.55;2.90;;;;;;;;;;5031775;28;20033;-68
2020/12/21 05:33:17;;;;;;;12.38;5.78;;;;;;;;;;5030947;28;20095;-69
2020/12/21 05:35:42;;;;;;;8.93;3.78;;;;;;;;;;5031833;28;20453;-68
2020/12/21 05:38:17;;;;;;;6.38;2.88;;;;;;;;;;5031580;28;20432;-68
2020/12/21 05:40:42;;;;;;;5.20;2.28;;;;;;;;;;5033798;28;20033;-67
2020/12/21 05:43:08;;;;;;;8.05;2.38;;;;;;;;;;5031950;28;20079;-68
2020/12/21 05:45:33;;;;;;;9.20;2.05;;;;;;;;;;5031540;28;20533;-74
2020/12/21 05:47:59;;;;;;;5.65;1.80;;;;;;;;;;5031681;28;20033;-69
2020/12/21 05:50:24;;;;;;;4.78;1.98;;;;;;;;;;5030957;28;20512;-70
2020/12/21 05:52:51;;;;;;;6.93;2.47;;;;;;;;;;5031197;28;20052;-68
2020/12/21 05:55:19;;;;;;;7.10;2.13;;;;;;;;;;5030718;28;20045;-67
2020/12/21 05:57:47;;;;;;;12.02;4.40;;;;;;;;;;5030545;28;20033;-68
2020/12/21 06:00:14;;;;;;;9.35;4.35;;;;;;;;;;5031477;28;20442;-68
2020/12/21 06:02:39;;;;;;;11.15;5.28;;;;;;;;;;5031343;28;20061;-70
2020/12/21 06:05:07;;;;;;;13.63;7.20;;;;;;;;;;5030957;28;20056;-68
2020/12/21 06:07:34;;;;;;;13.85;7.65;;;;;;;;;;5030017;28;20036;-68
2020/12/21 06:10:00;;;;;;;11.10;5.25;;;;;;;;;;5031130;28;20030;-69
2020/12/21 06:12:26;;;;;;;7.70;3.97;;;;;;;;;;5031069;28;20029;-70
2020/12/21 06:14:53;;;;;;;11.63;4.80;;;;;;;;;;5030788;28;20032;-69
2020/12/21 06:17:18;;;;;;;7.25;4.10;;;;;;;;;;5030755;28;20113;-67
2020/12/21 06:19:44;;;;;;;14.70;4.18;;;;;;;;;;5031525;28;20124;-68
2020/12/21 06:22:09;;;;;;;11.45;4.20;;;;;;;;;;5031367;28;20013;-68
2020/12/21 06:24:38;;;;;;;7.95;3.28;;;;;;;;;;5031393;28;20482;-68
2020/12/21 06:27:13;;;;;;;5.00;2.83;;;;;;;;;;5030600;28;20041;-68
2020/12/21 06:29:39;;;;;;;7.03;2.88;;;;;;;;;;5029676;28;20021;-68
2020/12/21 06:32:05;;;;;;;7.78;2.63;;;;;;;;;;5029328;28;20060;-68
2020/12/21 06:34:30;;;;;;;10.00;3.17;;;;;;;;;;5031128;28;20454;-69
2020/12/21 06:37:02;;;;;;;7.63;4.05;;;;;;;;;;5030646;28;20091;-68
2020/12/21 06:39:28;;;;;;;6.63;3.30;;;;;;;;;;5030459;28;20045;-68
2020/12/21 06:42:06;;;;;;;7.25;3.53;;;;;;;;;;5043459;28;20021;-67
2020/12/21 06:44:31;;;;;;;6.47;3.45;;;;;;;;;;5034450;28;20032;-68
2020/12/21 06:46:57;;;;;;;7.63;3.30;;;;;;;;;;5030242;28;20041;-68
2020/12/21 06:49:23;;;;;;;7.45;3.45;;;;;;;;;;5030876;28;20025;-69
2020/12/21 06:51:48;;;;;;;9.57;3.83;;;;;;;;;;5031007;28;20037;-75
2020/12/21 06:54:15;;;;;;;5.65;3.28;;;;;;;;;;5030997;28;20045;-68
2020/12/21 06:56:41;;;;;;;6.80;2.95;;;;;;;;;;5030413;28;20111;-68
2020/12/21 06:59:14;;;;;;;5.38;3.15;;;;;;;;;;5030286;28;20060;-68
2020/12/21 07:01:39;;;;;;;10.55;3.63;;;;;;;;;;5030378;28;20033;-67
2020/12/21 07:04:08;;;;;;;7.03;3.50;;;;;;;;;;5031019;28;20362;-68
2020/12/21 07:06:35;;;;;;;5.28;3.20;;;;;;;;;;5029899;28;20087;-69
2020/12/21 07:09:01;;;;;;;6.38;3.17;;;;;;;;;;5030703;28;20044;-68
2020/12/21 07:11:26;;;;;;;6.80;2.38;;;;;;;;;;5029878;28;20021;-69
2020/12/21 07:13:51;;;;;;;6.57;2.78;;;;;;;;;;5031139;28;20128;-68
2020/12/21 07:16:17;;;;;;;6.70;4.07;;;;;;;;;;5030428;28;20033;-68
2020/12/21 07:18:43;;;;;;;9.70;4.05;;;;;;;;;;5029654;28;20071;-68
2020/12/21 07:21:09;;;;;;;18.63;6.90;;;;;;;;;;5030492;28;20034;-68
2020/12/21 07:23:35;;;;;;;7.50;4.10;;;;;;;;;;5029999;28;20422;-68
2020/12/21 07:26:00;;;;;;;6.45;3.45;;;;;;;;;;5029491;28;20029;-68
2020/12/21 07:28:26;;;;;;;6.70;3.10;;;;;;;;;;5030703;28;20029;-68
2020/12/21 07:30:51;;;;;;;8.82;3.58;;;;;;;;;;5030077;28;20043;-68
2020/12/21 07:33:17;;;;;;;9.65;4.93;;;;;;;;;;5029847;28;20417;-68
2020/12/21 07:35:42;;;;;;;12.18;5.68;;;;;;;;;;5037593;28;20473;-68
2020/12/21 07:38:11;;;;;;;9.05;4.57;;;;;;;;;;5046392;28;20036;-68
2020/12/21 07:40:36;;;;;;;10.30;4.72;;;;;;;;;;5047415;28;20029;-68
2020/12/21 07:43:03;;;;;;;13.13;5.32;;;;;;;;;;5029950;28;20148;-74
2020/12/21 07:45:29;;;;;;;11.68;5.22;;;;;;;;;;5039457;28;20041;-69
2020/12/21 07:47:54;;;;;;;9.90;4.70;;;;;;;;;;5040373;28;20017;-69
2020/12/21 07:50:19;;;;;;;8.15;4.30;;;;;;;;;;5042430;28;20025;-68
2020/12/21 07:52:45;;;;;;;6.60;3.83;;;;;;;;;;5038324;28;20433;-69
2020/12/21 07:55:11;;;;;;;5.75;3.33;;;;;;;;;;5038854;28;20078;-69
2020/12/21 07:57:36;;;;;;;4.78;3.08;;;;;;;;;;5039885;28;20075;-69
2020/12/21 08:00:03;;;;;;;7.20;3.58;;;;;;;;;;5039018;28;20033;-68
2020/12/21 08:02:28;;;;;;;5.70;3.05;;;;;;;;;;5038924;28;20119;-68
2020/12/21 08:04:54;;;;;;;4.78;2.60;;;;;;;;;;5043363;28;20104;-68
2020/12/21 08:07:25;;;;;;;3.85;2.20;;;;;;;;;;5044737;28;20139;-68
2020/12/21 08:09:51;;;;;;;6.25;2.53;;;;;;;;;;5040810;28;20050;-68
2020/12/21 08:12:17;;;;;;;5.32;2.65;;;;;;;;;;5033599;28;20060;-68
2020/12/21 08:14:44;;;;;;;5.72;2.65;;;;;;;;;;5038305;28;20052;-68
2020/12/21 08:17:16;;;;;;;6.15;3.03;;;;;;;;;;5038435;28;20064;-74
2020/12/21 08:19:48;;;;;;;6.90;3.10;;;;;;;;;;5036326;28;20112;-67
2020/12/21 08:22:17;;;;;;;7.53;3.20;;;;;;;;;;5035202;28;20083;-68
2020/12/21 08:24:43;;;;;;;9.82;3.53;;;;;;;;;;5037405;28;20041;-68
2020/12/21 08:27:17;;;;;;;9.02;3.33;;;;;;;;;;5033409;28;20375;-68
2020/12/21 08:29:42;;;;;;;5.68;3.10;;;;;;;;;;5032439;28;20070;-73
2020/12/21 08:32:08;;;;;;;11.70;3.83;;;;;;;;;;5031271;28;20414;-69
2020/12/21 08:34:33;;;;;;;13.98;5.32;;;;;;;;;;5033356;28;20038;-68
2020/12/21 08:36:58;;;;;;;21.08;6.53;;;;;;;;;;5036496;28;20564;-68
2020/12/21 08:39:24;;;;;;;26.63;9.13;;;;;;;;;;5021571;28;20029;-69
2020/12/21 08:41:55;;;;;;;39.60;9.77;;;;;;;;;;5044266;28;20460;-69
2020/12/21 08:44:21;;;;;;;24.20;8.88;;;;;;;;;;5053565;28;20033;-68
2020/12/21 08:46:47;;;;;;;20.95;7.88;;;;;;;;;;5051244;28;20067;-72
2020/12/21 08:49:13;;;;;;;25.15;8.63;;;;;;;;;;5033507;28;20024;-68
2020/12/21 08:51:38;;;;;;;25.80;8.75;;;;;;;;;;5034871;28;20029;-68
2020/12/21 08:54:03;;;;;;;36.47;9.02;;;;;;;;;;5038473;28;20142;-68
2020/12/21 08:56:29;;;;;;;32.25;9.15;;;;;;;;;;5040880;28;20017;-71
2020/12/21 08:58:54;;;;;;;33.42;9.50;;;;;;;;;;5040809;28;20025;-68
2020/12/21 09:01:19;;;;;;;43.08;12.25;;;;;;;;;;5044120;28;20527;-74
2020/12/21 09:03:45;;;;;;;37.20;10.70;;;;;;;;;;5051729;28;20027;-68
2020/12/21 09:06:17;;;;;;;36.55;10.10;;;;;;;;;;5034809;28;20072;-68
2020/12/21 09:08:43;;;;;;;32.90;9.48;;;;;;;;;;5029673;28;20091;-68
2020/12/21 09:11:08;;;;;;;45.33;12.85;;;;;;;;;;5032037;28;20358;-69
2020/12/21 09:13:34;;;;;;;35.28;9.68;;;;;;;;;;5032664;28;20057;-68
2020/12/21 09:16:00;;;;;;;39.03;10.00;;;;;;;;;;5024541;28;20033;-68
2020/12/21 09:18:26;;;;;;;30.23;9.82;;;;;;;;;;5029883;28;20021;-68
2020/12/21 09:20:51;;;;;;;38.05;11.00;;;;;;;;;;5030363;28;20404;-68
2020/12/21 09:23:16;;;;;;;27.02;9.75;;;;;;;;;;5030316;28;20029;-67
2020/12/21 09:25:42;;;;;;;31.73;8.50;;;;;;;;;;5030079;28;20462;-69
2020/12/21 09:28:07;;;;;;;30.67;10.27;;;;;;;;;;5035294;28;20026;-68
2020/12/21 09:30:32;;;;;;;39.55;11.07;;;;;;;;;;5039775;28;21078;-70
2020/12/21 09:32:58;;;;;;;28.33;9.63;;;;;;;;;;5042185;28;20044;-67
2020/12/21 09:35:23;;;;;;;25.13;8.98;;;;;;;;;;5031365;28;20112;-68
2020/12/21 09:37:49;;;;;;;28.23;9.13;;;;;;;;;;5032782;28;20033;-67
2020/12/21 09:40:14;;;;;;;25.88;8.40;;;;;;;;;;5037633;28;20525;-68
2020/12/21 09:42:39;;;;;;;26.60;8.60;;;;;;;;;;5042268;28;20030;-68
2020/12/21 09:45:04;;;;;;;32.15;9.07;;;;;;;;;;5045708;28;20033;-71
2020/12/21 09:47:30;;;;;;;22.17;7.88;;;;;;;;;;5044694;28;20018;-69
2020/12/21 09:49:55;;;;;;;16.63;6.88;;;;;;;;;;5039128;28;20041;-68
2020/12/21 09:52:21;;;;;;;13.27;4.43;;;;;;;;;;5029998;28;20116;-67
2020/12/21 09:54:46;;;;;;;15.40;6.53;;;;;;;;;;5029474;28;20051;-68
2020/12/21 09:57:11;;;;;;;9.07;4.15;;;;;;;;;;5032628;28;20405;-68
2020/12/21 09:59:37;;;;;;;8.40;4.00;;;;;;;;;;5038497;28;20021;-68
2020/12/21 10:02:05;;;;;;;10.90;3.83;;;;;;;;;;5039079;28;20097;-69
2020/12/21 10:04:30;;;;;;;6.68;2.80;;;;;;;;;;5038452;28;20061;-69
2020/12/21 10:06:56;;;;;;;5.72;3.38;;;;;;;;;;5039151;28;20060;-68
2020/12/21 10:09:21;;;;;;;7.78;3.00;;;;;;;;;;5038878;28;20373;-68
2020/12/21 10:11:46;;;;;;;6.50;3.15;;;;;;;;;;5046292;28;20135;-68
2020/12/21 10:14:12;;;;;;;5.22;2.70;;;;;;;;;;5049114;28;20409;-68
2020/12/21 10:16:37;;;;;;;5.15;2.53;;;;;;;;;;5048730;28;20025;-67
2020/12/21 10:19:02;;;;;;;3.78;1.83;;;;;;;;;;5049708;28;20029;-68
2020/12/21 10:21:27;;;;;;;7.45;3.50;;;;;;;;;;5047876;28;20032;-68
2020/12/21 10:23:53;;;;;;;7.30;2.83;;;;;;;;;;5029805;28;20023;-67
2020/12/21 10:26:18;;;;;;;5.30;2.33;;;;;;;;;;5031355;28;20529;-68
2020/12/21 10:28:43;;;;;;;5.43;2.88;;;;;;;;;;5031484;28;20164;-68
2020/12/21 10:31:08;;;;;;;5.18;1.50;;;;;;;;;;5031179;28;20018;-69
2020/12/21 10:33:34;;;;;;;5.85;1.70;;;;;;;;;;5031823;28;20048;-67
2020/12/21 10:35:59;;;;;;;5.78;2.85;;;;;;;;;;5030369;28;20488;-68
2020/12/21 10:38:25;;;;;;;6.82;1.95;;;;;;;;;;5031012;28;20048;-68
2020/12/21 10:40:50;;;;;;;4.88;2.20;;;;;;;;;;5035167;28;20029;-68
2020/12/21 10:43:15;;;;;;;3.28;1.60;;;;;;;;;;5034696;28;20033;-68
2020/12/21 10:45:40;;;;;;;2.03;1.02;;;;;;;;;;5031122;28;20041;-68
2020/12/21 10:48:06;;;;;;;2.38;1.23;;;;;;;;;;5023425;28;20041;-69
2020/12/21 10:50:31;;;;;;;3.80;1.77;;;;;;;;;;5027537;28;20071;-69
2020/12/21 10:52:57;;;;;;;2.72;1.38;;;;;;;;;;5028911;28;20025;-68
2020/12/21 10:55:22;;;;;;;3.42;1.60;;;;;;;;;;5029280;28;20029;-68
2020/12/21 10:57:47;;;;;;;3.60;1.90;;;;;;;;;;5028719;28;20087;-68
2020/12/21 11:00:13;;;;;;;4.32;1.80;;;;;;;;;;5029022;28;20369;-70
2020/12/21 11:02:38;;;;;;;4.15;1.77;;;;;;;;;;5026901;28;20462;-68
2020/12/21 11:05:04;;;;;;;4.00;1.45;;;;;;;;;;5029031;28;20564;-68
2020/12/21 11:07:30;;;;;;;3.45;1.15;;;;;;;;;;5029354;28;20096;-68
2020/12/21 11:09:56;;;;;;;4.15;1.48;;;;;;;;;;5030169;28;20033;-71
2020/12/21 11:12:23;;;;;;;3.83;1.67;;;;;;;;;;5045194;28;20075;-68
2020/12/21 11:14:48;;;;;;;2.67;1.27;;;;;;;;;;5035925;28;20047;-68
2020/12/21 11:17:13;;;;;;;3.15;1.08;;;;;;;;;;5035528;28;20024;-68
2020/12/21 11:19:38;;;;;;;110.68;14.07;;;;;;;;;;5036597;28;20048;-69
2020/12/21 11:22:04;;;;;;;143.43;15.68;;;;;;;;;;5036657;28;20018;-69
2020/12/21 11:24:31;;;;;;;151.48;17.60;;;;;;;;;;5036853;28;20432;-69
2020/12/21 11:26:56;;;;;;;7.38;2.35;;;;;;;;;;5028604;28;20044;-68
2020/12/21 11:29:21;;;;;;;108.43;13.48;;;;;;;;;;5031325;28;20067;-68
2020/12/21 11:31:46;;;;;;;12.25;2.20;;;;;;;;;;5028274;28;20159;-77
2020/12/21 11:34:12;;;;;;;3.85;1.40;;;;;;;;;;5030590;28;20462;-70
2020/12/21 11:36:40;;;;;;;111.88;12.73;;;;;;;;;;5024934;28;20074;-71
2020/12/21 11:39:06;;;;;;;49.35;6.70;;;;;;;;;;5033520;28;20025;-70
2020/12/21 11:41:31;;;;;;;205.68;21.15;;;;;;;;;;4905116;28;20191;-67
2020/12/21 11:43:57;;;;;;;134.20;13.68;;;;;;;;;;4873768;28;20360;-67
2020/12/21 11:46:37;;;;;;;19.77;2.13;;;;;;;;;;4872628;28;20255;-68
2020/12/21 11:49:04;;;;;;;104.22;11.18;;;;;;;;;;4872378;28;20205;-67
2020/12/21 11:51:31;;;;;;;3.35;0.80;;;;;;;;;;4921359;28;20261;-67
2020/12/21 11:53:56;;;;;;;5.53;1.38;;;;;;;;;;4876188;28;20596;-66
2020/12/21 11:56:22;;;;;;;7.30;1.95;;;;;;;;;;4877815;28;20325;-66
2020/12/21 11:58:48;;;;;;;5.72;0.80;;;;;;;;;;4888227;28;20266;-66
2020/12/21 12:01:18;;;;;;;33.42;5.38;;;;;;;;;;4895363;28;20487;-67
2020/12/21 12:03:46;;;;;;;26.42;3.10;;;;;;;;;;4874984;28;20186;-67
2020/12/21 12:06:11;;;;;;;68.95;7.78;;;;;;;;;;5010412;28;20470;-70
2020/12/21 12:08:37;;;;;;;4.90;1.10;;;;;;;;;;5038263;28;20036;-69
2020/12/21 12:11:03;;;;;;;1.83;1.00;;;;;;;;;;5035177;28;20021;-71
2020/12/21 12:13:28;;;;;;;11.07;1.77;;;;;;;;;;5031104;28;20116;-70
2020/12/21 12:15:53;;;;;;;5.40;1.60;;;;;;;;;;5039122;28;20120;-71
2020/12/21 12:18:19;;;;;;;4.90;0.90;;;;;;;;;;5040011;28;20461;-70
2020/12/21 12:20:44;;;;;;;10.85;1.35;;;;;;;;;;5039210;28;20071;-70
2020/12/21 12:23:09;;;;;;;31.70;4.00;;;;;;;;;;5042118;28;20033;-70
2020/12/21 12:25:35;;;;;;;1.23;0.50;;;;;;;;;;5032560;28;20104;-72
2020/12/21 12:28:00;;;;;;;4.10;0.98;;;;;;;;;;5040743;28;20033;-70
2020/12/21 12:30:26;;;;;;;1.13;0.50;;;;;;;;;;5031902;28;20432;-70
2020/12/21 12:32:51;;;;;;;1.08;0.63;;;;;;;;;;5033173;28;20036;-70
2020/12/21 12:35:17;;;;;;;4.13;0.68;;;;;;;;;;4957674;28;20318;-70
2020/12/21 12:37:42;;;;;;;2.65;0.80;;;;;;;;;;4882503;28;20202;-69
2020/12/21 12:40:08;;;;;;;1.17;0.60;;;;;;;;;;4897283;28;20525;-67
2020/12/21 12:42:33;;;;;;;3.72;0.75;;;;;;;;;;4889778;28;20198;-67
2020/12/21 12:44:59;;;;;;;2.65;1.15;;;;;;;;;;4899964;28;20361;-66
2020/12/21 12:47:25;;;;;;;1.33;0.43;;;;;;;;;;4874765;28;20179;-66
2020/12/21 12:49:50;;;;;;;2.17;0.65;;;;;;;;;;4881808;28;20180;-67
2020/12/21 12:52:16;;;;;;;2.95;0.65;;;;;;;;;;4897236;28;20194;-67
2020/12/21 12:54:41;;;;;;;2.58;0.57;;;;;;;;;;4888834;28;20256;-67
2020/12/21 12:57:06;;;;;;;1.83;0.40;;;;;;;;;;4872521;28;20543;-67
2020/12/21 12:59:32;;;;;;;2.05;0.60;;;;;;;;;;4872734;28;20280;-67
2020/12/21 13:01:57;;;;;;;1.77;0.45;;;;;;;;;;4869427;28;20479;-66
2020/12/21 13:04:23;;;;;;;0.70;0.38;;;;;;;;;;4877726;28;20187;-67
2020/12/21 13:06:48;;;;;;;4.47;0.60;;;;;;;;;;4861153;28;20612;-67
2020/12/21 13:09:14;;;;;;;4.10;0.73;;;;;;;;;;4866548;28;20137;-66
2020/12/21 13:11:39;;;;;;;2.30;0.85;;;;;;;;;;4877784;28;20179;-67
2020/12/21 13:14:05;;;;;;;2.42;0.70;;;;;;;;;;4881628;28;20182;-66
2020/12/21 13:16:30;;;;;;;0.82;0.55;;;;;;;;;;4898471;28;20617;-67
2020/12/21 13:18:56;;;;;;;1.58;0.52;;;;;;;;;;4883781;28;20182;-67
2020/12/21 13:21:22;;;;;;;1.92;0.50;;;;;;;;;;4887969;28;20549;-67
2020/12/21 13:23:53;;;;;;;1.95;0.77;;;;;;;;;;4904174;28;20171;-67
2020/12/21 13:26:22;;;;;;;2.13;0.70;;;;;;;;;;4876213;28;20199;-67
2020/12/21 13:28:48;;;;;;;1.92;0.82;;;;;;;;;;4890053;28;20542;-67
2020/12/21 13:31:15;;;;;;;3.95;1.25;;;;;;;;;;4898688;28;20202;-67
2020/12/21 13:33:41;;;;;;;2.55;0.80;;;;;;;;;;4885415;28;20542;-67
2020/12/21 13:36:09;;;;;;;68.03;5.93;;;;;;;;;;4881254;28;20243;-68
2020/12/21 13:38:38;;;;;;;3.15;1.00;;;;;;;;;;4889598;28;20164;-67
2020/12/21 13:41:05;;;;;;;5.78;1.23;;;;;;;;;;4885152;28;20413;-67
2020/12/21 13:43:30;;;;;;;10.50;5.40;;;;;;;;;;4889314;28;20444;-67
2020/12/21 13:45:55;;;;;;;2.85;1.17;;;;;;;;;;4884301;28;20245;-67
2020/12/21 13:48:21;;;;;;;5.50;1.40;;;;;;;;;;4884569;28;20601;-67
2020/12/21 13:50:48;;;;;;;3.55;1.40;;;;;;;;;;4885387;28;20176;-68
2020/12/21 13:53:14;;;;;;;7.82;1.30;;;;;;;;;;4884253;28;20199;-67
2020/12/21 13:55:42;;;;;;;4.55;1.45;;;;;;;;;;4884270;28;20186;-67
2020/12/21 13:58:09;;;;;;;8.02;1.40;;;;;;;;;;4886064;28;20182;-67
2020/12/21 14:00:34;;;;;;;5.78;1.33;;;;;;;;;;4895447;28;20269;-67
2020/12/21 14:02:59;;;;;;;12.55;3.83;;;;;;;;;;4894739;28;20186;-67
2020/12/21 14:05:25;;;;;;;8.65;2.22;;;;;;;;;;4876409;28;20225;-67
2020/12/21 14:07:51;;;;;;;8.50;2.20;;;;;;;;;;4886872;28;20170;-68
2020/12/21 14:10:17;;;;;;;7.72;2.15;;;;;;;;;;4871766;28;20182;-67
2020/12/21 14:12:43;;;;;;;10.88;2.60;;;;;;;;;;4884006;28;20206;-67
2020/12/21 14:15:09;;;;;;;7.07;2.60;;;;;;;;;;4875001;28;20282;-67
2020/12/21 14:17:35;;;;;;;15.63;3.60;;;;;;;;;;4884565;28;20282;-67
2020/12/21 14:20:01;;;;;;;15.57;3.97;;;;;;;;;;4886735;28;20202;-67
2020/12/21 14:22:27;;;;;;;12.43;4.20;;;;;;;;;;4888398;28;20152;-66